Latest Coastal Weather Observations for Hobart Airport

IDT60701

Issued at 12:02 pm EDT Tuesday 2 March 2021 (issued every 10 minutes, with the page automatically refreshed every 10 minutes)

About coastal observations | Map of coastal stations | Coastal observations for TAS | Marine services | Other Formats
Station Details ID: 094008 Name: HOBART AIRPORT Lat: -42.83 Lon: 147.50 Height: 4.0 m
Data from the previous 72 hours. | See also: Recent months at Hobart Airport
Date/Time
EDT
Wind Sea
Height
m
Swell Vis
km
Cloud Weather Temp
°C
Press
MSL
hPa
Rain since
9am
mm
Dir  Spd
kts
Gust
kts
Height
m
Period
s
Dir
02/11:41am WSW 17 27 - - - - 8 Mostly clear Showers 11.3 1014.3 0.4
02/11:39am WSW 15 22 - - - - 6 Mostly clear Showers 11.8 1014.2 0.0
02/11:30am SW 11 17 - - - - 10 Mostly clear Showers 12.6 1014.0 0.0
02/11:00am SW 14 20 - - - - 10 Mostly clear - 13.2 1013.7 0.0
02/10:30am WSW 12 19 - - - - 10 Mostly clear - 12.1 1013.8 0.0
02/10:05am W 15 25 - - - - 4 Mostly clear - 11.8 1013.8 0.0
02/10:00am W 15 19 - - - - 10 Mostly clear - 11.3 1013.7 0.0
02/09:30am SW 8 12 - - - - 10 Mostly clear - 11.8 1013.5 0.0
02/09:00am SW 13 19 - - - - 30 Partly cloudy Distant precip. 12.5 1013.2 7.2
02/08:30am SW 11 19 - - - - 10 Mostly clear - 12.0 1012.6 7.2
02/08:00am WSW 12 16 - - - - 10 Partly cloudy - 11.4 1012.2 7.2
02/07:30am SW 17 21 - - - - 10 Partly cloudy - 11.3 1011.8 7.2
02/07:00am WSW 12 16 - - - - 10 Partly cloudy - 11.3 1011.4 7.2
02/06:30am SW 18 25 - - - - 10 Mostly clear - 11.6 1010.9 7.2
02/06:00am SW 16 21 - - - - 35 Mostly cloudy Distant precip. 11.8 1010.5 7.2
02/05:51am SW 15 26 - - - - 10 Mostly clear - 11.9 1010.4 7.2
02/05:30am SW 17 22 - - - - 10 Partly cloudy - 11.8 1010.0 7.2
02/05:00am SW 17 23 - - - - 10 Partly cloudy - 11.7 1009.6 7.2
02/04:30am SW 17 22 - - - - 10 Partly cloudy - 11.9 1009.2 7.2
02/04:21am SW 16 26 - - - - 10 Partly cloudy - 12.0 1009.2 7.2
02/04:00am SW 18 27 - - - - 10 Partly cloudy - 12.4 1008.8 7.2
02/03:41am SW 19 29 - - - - 10 Partly cloudy - 12.5 1008.4 7.2
02/03:30am SW 21 28 - - - - 10 Partly cloudy - 12.5 1008.3 7.2
02/03:01am SW 19 29 - - - - 10 Partly cloudy - 12.6 1007.4 7.2
02/03:00am SW 19 28 - - - - 10 Cloudy - 12.6 1007.4 7.2
02/02:31am SW 21 31 - - - - 10 Partly cloudy - 12.5 1006.8 7.2
02/02:30am SW 20 27 - - - - 10 Cloudy - 12.5 1006.8 7.2
02/02:04am SW 22 33 - - - - 10 Partly cloudy - 12.4 1006.5 7.2
02/02:00am SW 22 30 - - - - 10 Partly cloudy - 12.3 1006.4 7.2
02/01:56am SW 23 32 - - - - 10 Partly cloudy - 12.3 1006.4 7.2
02/01:31am WSW 16 27 - - - - 10 Partly cloudy - 11.6 1006.1 7.2
02/01:30am WSW 16 22 - - - - 10 Partly cloudy - 11.6 1006.2 7.2
02/01:08am WSW 16 27 - - - - 10 Partly cloudy - 11.4 1005.6 6.6
02/01:00am WSW 15 20 - - - - 9 Partly cloudy - 11.4 1005.6 6.2
02/12:57am WSW 15 20 - - - - 8 Partly cloudy - 11.4 1005.6 6.0
02/12:30am W 13 20 - - - - 10 Partly cloudy - 11.2 1005.1 4.6
02/12:00am W 13 18 - - - - 10 Cloudy Showers 11.9 1004.7 3.2
 
Date/Time
EDT
Wind Sea
Height
m
Swell Vis
km
Cloud Weather Temp
°C
Press
MSL
hPa
Rain since
9am
mm
Dir  Spd
kts
Gust
kts
Height
m
Period
s
Dir
01/11:49pm W 15 26 - - - - 10 Partly cloudy - 11.5 1004.5 3.2
01/11:30pm WSW 17 25 - - - - 10 Mostly clear Showers 11.5 1004.5 3.2
01/11:23pm WSW 17 24 - - - - 10 Mostly clear Showers 11.4 1004.6 3.2
01/11:13pm WSW 17 27 - - - - 6 Mostly clear Showers 11.2 1004.5 3.0
01/11:10pm WSW 17 23 - - - - 5 Mostly clear Showers 11.2 1004.5 2.8
01/11:00pm WSW 19 31 - - - - 7 Mostly clear - 11.2 1004.3 1.4
01/10:30pm WSW 17 27 - - - - 10 Mostly clear Showers 12.7 1003.8 0.6
01/10:15pm W 17 28 - - - - 10 Mostly clear - 13.2 1003.3 0.6
01/10:00pm WSW 14 19 - - - - 10 Mostly clear - 13.1 1003.2 0.6
01/09:35pm W 15 26 - - - - 10 Mostly clear Showers 13.4 1002.9 0.6
01/09:30pm W 14 20 - - - - 10 Mostly clear - 13.4 1002.9 0.6
01/09:00pm WSW 17 23 - - - - 35 Mostly cloudy Fine 13.3 1002.5 0.6
01/08:32pm WSW 16 26 - - - - 10 Mostly clear - 13.5 1002.2 0.6
01/08:30pm WSW 16 24 - - - - 10 Mostly clear - 13.6 1002.1 0.6
01/08:07pm W 16 27 - - - - 10 Mostly clear - 13.6 1002.0 0.6
01/08:00pm WSW 16 23 - - - - 10 Mostly clear - 13.6 1001.9 0.6
01/07:30pm WSW 15 20 - - - - 10 Mostly clear - 14.2 1001.5 0.6
01/07:01pm WSW 18 28 - - - - 10 Mostly clear - 15.0 1001.3 0.6
01/07:00pm WSW 17 24 - - - - 10 Mostly clear - 15.0 1001.3 0.6
01/06:30pm SW 12 17 - - - - 10 Partly cloudy - 15.5 1000.9 0.6
01/06:00pm WSW 12 17 - - - - 35 Mostly cloudy Distant precip. 16.3 1000.6 0.6
01/05:30pm WSW 12 21 - - - - 10 Mostly clear - 15.8 1001.0 0.6
01/05:00pm SW 12 17 - - - - 10 Mostly clear - 16.0 1001.0 0.6
01/04:30pm SW 11 18 - - - - 10 Mostly clear - 16.5 1000.6 0.6
01/04:00pm W 15 22 - - - - 10 Mostly clear - 16.0 1000.6 0.6
01/03:43pm W 17 23 - - - - 10 Mostly clear Thunder 17.1 1000.4 0.4
01/03:35pm NW 15 25 - - - - 10 Mostly clear Thunder 17.6 1000.1 0.4
01/03:30pm WNW 15 23 - - - - 10 Mostly clear Thunderstorm 17.7 1000.2 0.4
01/03:22pm WNW 11 23 - - - - 9 Mostly clear Showers 17.6 1000.1 0.4
01/03:00pm NNW 8 13 - - - - 25 Mostly cloudy Distant precip. 20.8 1000.2 0.0
01/02:30pm NNW 8 12 - - - - 10 Mostly clear - 19.8 1001.1 0.0
01/02:00pm NNW 4 5 - - - - 10 Mostly clear - 18.7 1002.1 0.0
01/01:30pm NW 6 8 - - - - 10 Cloudy - 17.5 1002.9 0.0
01/01:00pm WNW 10 14 - - - - 10 Mostly clear - 17.1 1003.6 0.0
01/12:30pm WNW 8 12 - - - - 10 Mostly clear - 18.6 1004.0 0.0
01/12:00pm NW 8 10 - - - - 24 Mostly cloudy Distant precip. 18.4 1004.5 0.0
01/11:30am WNW 5 9 - - - - 10 Mostly clear - 18.0 1005.0 0.0
01/11:00am NW 5 7 - - - - 10 Mostly clear - 17.3 1005.4 0.0
01/10:30am N 4 6 - - - - 10 Mostly clear - 16.7 1005.6 0.0
01/10:00am WNW 6 8 - - - - 10 Mostly clear - 16.3 1005.8 0.0
01/09:30am NNW 6 7 - - - - 10 Cloudy - 16.1 1006.0 0.0
01/09:00am NNW 5 6 - - - - 35 Mostly cloudy Fine 15.9 1006.2 2.6
01/08:30am NNW 5 7 - - - - 10 Mostly clear - 15.7 1006.4 2.6
01/08:00am CALM 0 0 - - - - 10 Mostly clear - 15.5 1006.3 2.6
01/07:30am NW 4 5 - - - - 10 Mostly clear - 15.2 1006.6 2.6
01/07:00am NW 3 4 - - - - 10 Mostly clear - 15.0 1006.6 2.6
01/06:30am NW 5 7 - - - - 10 Mostly clear - 15.1 1006.8 2.6
01/06:03am CALM 0 2 - - - - 10 Mostly clear Showers 15.2 1006.5 2.4
01/06:00am N 1 3 - - - - 14 Mostly cloudy Showers 15.1 1006.5 2.4
01/05:47am N 3 4 - - - - 6 Partly cloudy - 15.1 1006.7 2.2
01/05:30am N 4 4 - - - - 10 Cloudy - 15.2 1007.0 1.4
01/05:19am N 5 5 - - - - 10 Partly cloudy - 15.2 1007.0 1.2
01/05:06am CALM 0 0 - - - - 6 Partly cloudy - 15.2 1007.0 1.0
01/05:00am CALM 0 0 - - - - 9 Partly cloudy - 15.3 1007.1 0.6
01/04:30am CALM 0 0 - - - - 10 Cloudy - 15.6 1007.3 0.0
01/04:00am SW 5 6 - - - - 10 Cloudy - 15.7 1007.7 0.0
01/03:53am SW 4 5 - - - - 10 Cloudy - 15.6 1007.7 0.0
01/03:30am W 6 7 - - - - 10 Partly cloudy - 15.6 1008.1 0.0
01/03:14am NW 4 6 - - - - 10 Partly cloudy - 15.5 1008.2 0.0
01/03:00am SE 5 7 - - - - 10 Cloudy Rain 15.7 1007.6 0.0
01/02:30am SSW 4 5 - - - - 10 Partly cloudy - 16.0 1008.2 0.0
01/02:00am CALM 0 0 - - - - 10 Partly cloudy - 16.7 1008.9 0.0
01/01:30am CALM 0 0 - - - - 10 Cloudy - 16.7 1009.1 0.0
01/01:00am E 1 4 - - - - 10 Partly cloudy - 16.7 1009.3 0.0
01/12:30am SE 3 5 - - - - 10 Cloudy - 16.7 1009.7 0.0
01/12:00am ESE 3 4 - - - - 10 Cloudy - 16.7 1010.3 0.0
 
Date/Time
EDT
Wind Sea
Height
m
Swell Vis
km
Cloud Weather Temp
°C
Press
MSL
hPa
Rain since
9am
mm
Dir  Spd
kts
Gust
kts
Height
m
Period
s
Dir
28/11:30pm SE 4 4 - - - - 10 Mostly clear - 16.9 1010.6 0.0
28/11:00pm ESE 3 5 - - - - 10 Mostly clear - 16.9 1010.7 0.0
28/10:30pm ESE 5 6 - - - - 10 Mostly clear - 16.9 1010.8 0.0
28/10:00pm SE 4 5 - - - - 10 Mostly clear - 16.9 1011.2 0.0
28/09:30pm ESE 4 5 - - - - 10 Mostly clear - 17.0 1011.3 0.0
28/09:00pm SE 4 5 - - - - 35 Mostly cloudy Fine 17.1 1011.3 0.0
28/08:30pm ESE 4 5 - - - - 10 Mostly clear - 17.3 1011.1 0.0
28/08:00pm S 10 14 - - - - 10 Mostly clear - 17.3 1011.0 0.0
28/07:30pm S 13 16 - - - - 10 Mostly clear - 17.2 1010.9 0.0
28/07:00pm S 11 14 - - - - 10 Mostly clear - 17.6 1010.7 0.0
28/06:30pm S 14 19 - - - - 10 Mostly clear - 18.2 1010.6 0.0
28/06:00pm S 15 19 - - - - 40 Mostly cloudy Fine 19.0 1010.4 0.0
28/05:30pm S 16 20 - - - - 10 Mostly clear - 18.5 1010.4 0.0
28/05:00pm S 14 17 - - - - 10 Mostly clear - 18.7 1010.5 0.0
28/04:30pm SSE 14 18 - - - - 10 Mostly clear - 20.3 1010.3 0.0
28/04:00pm SSE 15 19 - - - - 10 Mostly clear - 20.0 1010.4 0.0
28/03:30pm SSE 13 18 - - - - 10 Mostly clear - 20.3 1010.5 0.0
28/03:00pm SSE 12 16 - - - - 40 Partly cloudy Fine 20.4 1010.8 0.0
28/02:30pm SSE 12 15 - - - - 10 Mostly clear - 20.1 1011.1 0.0
28/02:00pm SSE 10 12 - - - - 10 Mostly clear - 19.8 1011.6 0.0
28/01:30pm SSE 9 11 - - - - 10 Mostly clear - 19.3 1011.7 0.0
28/01:00pm SSE 9 11 - - - - 10 Mostly clear - 19.2 1012.0 0.0
28/12:30pm SE 8 10 - - - - 10 Mostly clear - 20.2 1012.4 0.0
28/12:00pm SSE 7 10 - - - - 40 Partly cloudy Fine 19.4 1012.9 0.0
28/11:30am SSE 8 10 - - - - 10 Mostly clear - 18.2 1013.1 0.0
28/11:00am SE 8 11 - - - - 10 Mostly clear - 18.1 1013.2 0.0
28/10:30am SE 6 8 - - - - 10 Mostly clear - 18.8 1013.5 0.0
28/10:00am N 2 4 - - - - 10 Mostly clear - 17.7 1013.8 0.0
28/09:30am NE 6 7 - - - - 10 Mostly clear - 16.5 1013.9 0.0
28/09:00am NW 4 6 - - - - 40 Mostly clear Fine 15.5 1013.9 0.0
28/08:30am NW 6 7 - - - - 10 Mostly clear - 14.4 1013.9 0.0
28/08:00am WNW 2 6 - - - - 10 Mostly clear - 13.6 1013.7 0.0
28/07:30am WNW 1 4 - - - - 10 Mostly clear - 12.6 1013.6 0.0
28/07:00am CALM 0 2 - - - - 10 Mostly clear - 10.9 1013.3 0.0
28/06:30am NW 1 3 - - - - 10 Mostly clear - 12.6 1013.2 0.0
28/06:00am N 4 5 - - - - 40 Mostly clear Fine 13.3 1013.2 0.0
28/05:30am NE 4 5 - - - - 10 Cloudy - 14.2 1013.3 0.0
28/05:00am NNW 5 6 - - - - 10 Cloudy - 14.1 1013.6 0.0
28/04:30am NW 7 8 - - - - 10 Cloudy - 14.5 1013.8 0.0
28/04:00am NW 7 9 - - - - 10 Partly cloudy - 14.7 1013.9 0.0
28/03:30am NW 5 6 - - - - 10 Partly cloudy - 14.7 1013.9 0.0
28/03:00am NW 5 7 - - - - 10 Cloudy - 14.7 1013.8 0.0
28/02:30am NW 5 6 - - - - 10 Cloudy - 14.9 1013.9 0.0
28/02:00am W 4 5 - - - - 10 Cloudy - 15.0 1014.1 0.0
28/01:30am S 3 4 - - - - 10 Cloudy - 15.0 1014.3 0.0
28/01:00am SSW 5 6 - - - - 10 Cloudy - 15.0 1014.5 0.0
28/12:30am S 5 6 - - - - 10 Cloudy - 15.0 1014.5 0.0
28/12:00am SSW 6 8 - - - - 10 Cloudy - 15.0 1014.7 0.0
 
Date/Time
EDT
Wind Sea
Height
m
Swell Vis
km
Cloud Weather Temp
°C
Press
MSL
hPa
Rain since
9am
mm
Dir  Spd
kts
Gust
kts
Height
m
Period
s
Dir
27/11:30pm SSW 7 9 - - - - 10 Mostly cloudy - 15.0 1014.9 0.0
27/11:00pm SSW 7 8 - - - - 10 Mostly cloudy - 15.1 1015.0 0.0
27/10:30pm SSW 7 8 - - - - 10 Mostly cloudy - 15.3 1015.1 0.0
27/10:00pm SSW 7 8 - - - - 10 Mostly cloudy - 15.3 1015.1 0.0
27/09:30pm SSW 7 10 - - - - 10 Mostly cloudy - 15.2 1015.2 0.0
27/09:00pm SSW 7 9 - - - - 40 Mostly cloudy Fine 15.2 1015.2 0.0
27/08:30pm SSW 7 9 - - - - 10 Partly cloudy - 15.2 1014.9 0.0
27/08:00pm SSW 7 8 - - - - 10 Mostly clear - 15.3 1014.7 0.0
27/07:30pm S 10 13 - - - - 10 Mostly clear - 15.5 1014.3 0.0
27/07:00pm S 11 15 - - - - 10 Mostly clear - 15.9 1014.0 0.0
27/06:30pm SSE 11 15 - - - - 10 Mostly clear - 16.2 1013.8 0.0
27/06:00pm SSE 11 16 - - - - 40 Mostly cloudy Fine 16.5 1013.7 0.0
27/05:30pm SSE 13 15 - - - - 10 Mostly clear - 16.9 1013.5 0.0
27/05:00pm SSE 12 15 - - - - 10 Mostly clear - 17.5 1013.5 0.0
27/04:30pm SSE 11 14 - - - - 10 Mostly clear - 18.0 1013.6 0.0
27/04:00pm SSE 10 14 - - - - 10 Mostly clear - 18.9 1013.8 0.0
27/03:30pm SSE 11 15 - - - - 10 Mostly clear - 17.8 1013.9 0.0
27/03:00pm SE 11 15 - - - - 40 Mostly cloudy Fine 17.7 1014.2 0.0
27/02:30pm SE 10 13 - - - - 10 Mostly clear - 18.2 1014.5 0.0
27/02:00pm SSE 10 14 - - - - 10 Mostly clear - 17.7 1014.7 0.0
27/01:30pm SE 9 13 - - - - 10 Mostly clear - 17.1 1015.0 0.0
27/01:00pm S 7 12 - - - - 10 Partly cloudy - 17.0 1015.4 0.0
27/12:30pm ESE 7 10 - - - - 10 Partly cloudy - 16.7 1015.6 0.0

Other formats

Comma delimited format used in spreadsheet applications
http://www.bom.gov.au/fwo/IDT60701/IDT60701.94975.axf

JavaScript Object Notation format (JSON) in row-major order
http://www.bom.gov.au/fwo/IDT60701/IDT60701.94975.json

Data quality

Most of these data are generated automatically and are frequently updated. Quality checks on data are not normally performed. It is possible for incorrect values to appear. Refer to information at About Latest Weather Observations and please check the disclaimer before using these data.